Time;durP1;ratioP1;P1;durP2;ratioP2;P2;SDS_P1;SDS_P2;PMS_P1;PMS_P2;Temp;Humidity;BMP_temperature;BMP_pressure;BME280_temperature;BME280_humidity;BME280_pressure;Samples;Min_cycle;Max_cycle;Signal;HPM_P1;HPM_P2
2021/08/29 00:02:25;;;;;;;6.10;4.25;;;;;;;;;;5032149;28;20040;-52
2021/08/29 00:04:51;;;;;;;5.80;4.35;;;;;;;;;;5032538;28;20447;-52
2021/08/29 00:07:17;;;;;;;8.18;4.30;;;;;;;;;;5032544;28;20029;-51
2021/08/29 00:09:43;;;;;;;7.97;4.15;;;;;;;;;;5033039;28;20029;-51
2021/08/29 00:12:10;;;;;;;8.85;4.95;;;;;;;;;;5032529;28;20026;-51
2021/08/29 00:14:36;;;;;;;8.68;5.00;;;;;;;;;;5032149;28;20332;-51
2021/08/29 00:17:02;;;;;;;7.07;4.70;;;;;;;;;;5031872;28;20064;-51
2021/08/29 00:19:28;;;;;;;6.43;3.95;;;;;;;;;;5032936;28;20045;-51
2021/08/29 00:21:53;;;;;;;9.45;4.05;;;;;;;;;;5032706;28;20065;-52
2021/08/29 00:24:20;;;;;;;5.47;4.20;;;;;;;;;;5031641;28;20087;-52
2021/08/29 00:26:46;;;;;;;10.18;4.45;;;;;;;;;;5032555;28;20029;-52
2021/08/29 00:29:11;;;;;;;7.22;4.43;;;;;;;;;;5032530;28;20029;-51
2021/08/29 00:31:37;;;;;;;8.05;4.63;;;;;;;;;;5031757;28;20493;-52
2021/08/29 00:34:03;;;;;;;8.13;3.85;;;;;;;;;;5031913;28;20116;-51
2021/08/29 00:36:29;;;;;;;4.82;3.53;;;;;;;;;;5032577;28;20098;-51
2021/08/29 00:38:55;;;;;;;8.13;3.63;;;;;;;;;;5032205;28;20371;-51
2021/08/29 00:41:21;;;;;;;5.13;3.60;;;;;;;;;;5036366;28;20398;-51
2021/08/29 00:43:47;;;;;;;7.15;3.33;;;;;;;;;;5033360;28;20522;-52
2021/08/29 00:46:13;;;;;;;7.25;3.92;;;;;;;;;;5036801;28;20109;-51
2021/08/29 00:48:46;;;;;;;4.00;3.00;;;;;;;;;;5035519;28;20087;-51
2021/08/29 00:51:13;;;;;;;6.18;3.20;;;;;;;;;;5036738;28;20056;-51
2021/08/29 00:53:39;;;;;;;3.88;2.65;;;;;;;;;;5035037;28;20502;-51
2021/08/29 00:56:05;;;;;;;4.60;3.22;;;;;;;;;;5036252;28;20033;-52
2021/08/29 00:58:31;;;;;;;4.20;3.00;;;;;;;;;;5036084;28;20726;-51
2021/08/29 01:00:58;;;;;;;3.85;2.70;;;;;;;;;;5036476;28;20375;-52
2021/08/29 01:03:26;;;;;;;4.18;2.85;;;;;;;;;;5034599;28;20036;-52
2021/08/29 01:06:01;;;;;;;3.85;3.03;;;;;;;;;;5036484;28;20029;-52
2021/08/29 01:08:29;;;;;;;10.02;2.95;;;;;;;;;;5035310;28;20038;-52
2021/08/29 01:10:57;;;;;;;16.50;2.97;;;;;;;;;;5035487;28;20025;-52
2021/08/29 01:13:27;;;;;;;6.13;3.92;;;;;;;;;;5035143;28;20103;-52
2021/08/29 01:15:57;;;;;;;4.57;3.53;;;;;;;;;;5036246;28;20366;-52
2021/08/29 01:18:25;;;;;;;4.32;3.40;;;;;;;;;;5035405;28;20033;-51
2021/08/29 01:20:57;;;;;;;8.02;4.10;;;;;;;;;;5036080;28;20048;-52
2021/08/29 01:23:24;;;;;;;4.45;3.38;;;;;;;;;;5034263;28;20116;-52
2021/08/29 01:25:55;;;;;;;4.10;2.70;;;;;;;;;;5035921;28;20030;-52
2021/08/29 01:28:22;;;;;;;4.93;3.15;;;;;;;;;;5035657;28;20116;-52
2021/08/29 01:30:48;;;;;;;7.35;3.03;;;;;;;;;;5035986;28;20021;-52
2021/08/29 01:33:15;;;;;;;3.75;2.97;;;;;;;;;;5034704;28;20035;-52
2021/08/29 01:35:41;;;;;;;4.93;3.45;;;;;;;;;;5035185;28;20051;-51
2021/08/29 01:38:08;;;;;;;11.20;3.35;;;;;;;;;;5035190;28;20021;-51
2021/08/29 01:40:34;;;;;;;4.90;3.28;;;;;;;;;;5035515;28;20694;-51
2021/08/29 01:43:01;;;;;;;7.07;3.30;;;;;;;;;;5049732;28;20083;-52
2021/08/29 01:45:28;;;;;;;5.53;3.55;;;;;;;;;;5054961;28;20025;-51
2021/08/29 01:47:57;;;;;;;10.35;3.70;;;;;;;;;;5046507;28;20048;-51
2021/08/29 01:50:23;;;;;;;7.20;3.50;;;;;;;;;;5034830;28;20037;-51
2021/08/29 01:52:49;;;;;;;6.97;3.60;;;;;;;;;;5034754;28;20026;-52
2021/08/29 01:55:16;;;;;;;4.07;3.05;;;;;;;;;;5034688;28;20025;-51
2021/08/29 01:57:42;;;;;;;5.80;3.25;;;;;;;;;;5035411;28;20351;-52
2021/08/29 02:00:08;;;;;;;6.72;3.60;;;;;;;;;;5034800;28;20060;-51
2021/08/29 02:02:34;;;;;;;8.23;3.65;;;;;;;;;;5034516;28;20034;-52
2021/08/29 02:05:00;;;;;;;4.68;3.33;;;;;;;;;;5034274;28;20033;-52
2021/08/29 02:07:26;;;;;;;4.75;3.63;;;;;;;;;;5034729;28;20459;-51
2021/08/29 02:10:12;;;;;;;8.52;4.32;;;;;;;;;;5026538;28;20025;-51
2021/08/29 02:12:42;;;;;;;6.43;3.63;;;;;;;;;;5035306;28;20021;-52
2021/08/29 02:15:12;;;;;;;5.28;3.90;;;;;;;;;;5034740;28;20032;-52
2021/08/29 02:17:40;;;;;;;7.70;3.60;;;;;;;;;;5036699;28;20048;-52
2021/08/29 02:20:08;;;;;;;10.98;3.97;;;;;;;;;;5034723;28;20457;-52
2021/08/29 02:22:34;;;;;;;7.40;3.78;;;;;;;;;;5034140;28;20367;-51
2021/08/29 02:25:02;;;;;;;6.03;3.60;;;;;;;;;;5034105;28;20022;-52
2021/08/29 02:27:28;;;;;;;6.60;3.50;;;;;;;;;;5034356;28;20033;-51
2021/08/29 02:29:54;;;;;;;4.32;3.47;;;;;;;;;;5034338;28;20041;-51
2021/08/29 02:32:20;;;;;;;11.55;3.97;;;;;;;;;;5034185;28;20119;-51
2021/08/29 02:34:46;;;;;;;4.47;3.40;;;;;;;;;;5033576;28;20030;-51
2021/08/29 02:37:13;;;;;;;10.77;4.18;;;;;;;;;;5034572;28;20160;-52
2021/08/29 02:39:40;;;;;;;5.78;3.60;;;;;;;;;;5034085;28;20076;-51
2021/08/29 02:42:07;;;;;;;8.15;3.55;;;;;;;;;;5034691;28;20040;-52
2021/08/29 02:44:36;;;;;;;4.85;3.17;;;;;;;;;;5033981;28;20467;-51
2021/08/29 02:47:02;;;;;;;6.53;3.50;;;;;;;;;;5034520;28;20033;-51
2021/08/29 02:49:28;;;;;;;4.95;3.22;;;;;;;;;;5033246;28;20033;-52
2021/08/29 02:51:54;;;;;;;6.95;2.70;;;;;;;;;;5034147;28;20049;-52
2021/08/29 02:54:21;;;;;;;5.60;3.42;;;;;;;;;;5033150;28;20056;-52
2021/08/29 02:56:48;;;;;;;3.55;2.83;;;;;;;;;;5033537;28;20082;-52
2021/08/29 02:59:14;;;;;;;6.40;3.15;;;;;;;;;;5034487;28;20021;-52
2021/08/29 03:01:40;;;;;;;4.82;3.30;;;;;;;;;;5034090;28;20459;-51
2021/08/29 03:04:06;;;;;;;4.63;3.08;;;;;;;;;;5031489;28;20352;-52
2021/08/29 03:06:34;;;;;;;5.40;3.20;;;;;;;;;;5034154;28;20075;-51
2021/08/29 03:09:00;;;;;;;6.72;3.72;;;;;;;;;;5032232;28;20025;-51
2021/08/29 03:11:26;;;;;;;4.53;3.42;;;;;;;;;;5033614;28;20029;-52
2021/08/29 03:13:52;;;;;;;3.38;2.38;;;;;;;;;;5033053;28;20021;-52
2021/08/29 03:16:18;;;;;;;6.18;3.58;;;;;;;;;;5033734;28;20044;-52
2021/08/29 03:18:45;;;;;;;5.13;2.90;;;;;;;;;;5032415;28;20029;-52
2021/08/29 03:21:11;;;;;;;5.55;3.35;;;;;;;;;;5033970;28;20040;-52
2021/08/29 03:23:37;;;;;;;4.18;2.78;;;;;;;;;;5032371;28;20030;-52
2021/08/29 03:26:03;;;;;;;7.00;3.10;;;;;;;;;;5033833;28;20105;-52
2021/08/29 03:28:29;;;;;;;6.53;3.75;;;;;;;;;;5033389;28;20044;-52
2021/08/29 03:30:55;;;;;;;6.90;3.40;;;;;;;;;;5033325;28;20029;-51
2021/08/29 03:33:23;;;;;;;5.03;3.20;;;;;;;;;;5032141;28;20033;-51
2021/08/29 03:35:50;;;;;;;5.20;3.45;;;;;;;;;;5033755;28;20037;-51
2021/08/29 03:38:20;;;;;;;5.28;3.47;;;;;;;;;;5033169;28;20026;-52
2021/08/29 03:40:47;;;;;;;5.00;3.00;;;;;;;;;;5033327;28;20044;-52
2021/08/29 03:43:17;;;;;;;4.63;3.85;;;;;;;;;;5032872;28;20024;-51
2021/08/29 03:45:43;;;;;;;4.22;3.08;;;;;;;;;;5033242;28;20030;-52
2021/08/29 03:48:10;;;;;;;8.48;3.72;;;;;;;;;;5032657;28;20036;-51
2021/08/29 03:50:37;;;;;;;5.32;3.63;;;;;;;;;;5033464;28;20049;-51
2021/08/29 03:53:03;;;;;;;6.32;3.50;;;;;;;;;;5033000;28;20040;-51
2021/08/29 03:55:29;;;;;;;4.47;3.28;;;;;;;;;;5032123;28;20040;-52
2021/08/29 03:57:55;;;;;;;5.22;3.20;;;;;;;;;;5032845;28;20439;-51
2021/08/29 04:00:22;;;;;;;5.93;3.88;;;;;;;;;;5033214;28;20029;-52
2021/08/29 04:02:48;;;;;;;5.45;3.88;;;;;;;;;;5033110;28;20018;-52
2021/08/29 04:05:15;;;;;;;6.78;3.35;;;;;;;;;;5031959;28;20033;-51
2021/08/29 04:07:42;;;;;;;6.00;3.85;;;;;;;;;;5032747;28;20039;-51
2021/08/29 04:10:08;;;;;;;6.47;3.20;;;;;;;;;;5032219;28;20033;-51
2021/08/29 04:12:35;;;;;;;4.80;3.20;;;;;;;;;;5032867;28;20029;-52
2021/08/29 04:15:02;;;;;;;10.68;3.72;;;;;;;;;;5032033;28;20064;-51
2021/08/29 04:17:31;;;;;;;11.85;3.22;;;;;;;;;;5033149;28;20117;-52
2021/08/29 04:19:57;;;;;;;7.50;3.45;;;;;;;;;;5031835;28;20506;-51
2021/08/29 04:22:23;;;;;;;5.82;3.28;;;;;;;;;;5032990;28;20033;-51
2021/08/29 04:24:49;;;;;;;13.95;4.00;;;;;;;;;;5031175;28;20443;-52
2021/08/29 04:27:15;;;;;;;5.63;3.72;;;;;;;;;;5032176;28;20029;-52
2021/08/29 04:29:41;;;;;;;4.97;3.65;;;;;;;;;;5031718;28;20414;-52
2021/08/29 04:32:07;;;;;;;14.35;4.40;;;;;;;;;;5028056;28;20033;-52
2021/08/29 04:34:36;;;;;;;8.57;4.07;;;;;;;;;;5022106;28;20026;-52
2021/08/29 04:37:02;;;;;;;8.00;4.28;;;;;;;;;;5032947;28;20087;-52
2021/08/29 04:39:28;;;;;;;8.05;4.45;;;;;;;;;;5032469;28;20152;-52
2021/08/29 04:41:54;;;;;;;8.50;4.07;;;;;;;;;;5032052;28;20034;-52
2021/08/29 04:44:20;;;;;;;9.27;4.10;;;;;;;;;;5032027;28;20032;-52
2021/08/29 04:46:46;;;;;;;5.97;4.25;;;;;;;;;;5032820;28;20391;-52
2021/08/29 04:49:12;;;;;;;7.30;4.05;;;;;;;;;;5031753;28;20112;-51
2021/08/29 04:51:38;;;;;;;9.13;4.30;;;;;;;;;;5032501;28;20328;-51
2021/08/29 04:54:04;;;;;;;10.40;4.40;;;;;;;;;;5031478;28;20021;-51
2021/08/29 04:56:30;;;;;;;14.82;4.75;;;;;;;;;;5032027;28;20315;-52
2021/08/29 04:58:56;;;;;;;6.95;3.88;;;;;;;;;;5032581;28;20026;-52
2021/08/29 05:01:26;;;;;;;6.80;4.18;;;;;;;;;;5032766;28;20357;-52
2021/08/29 05:03:52;;;;;;;;;;;;;;;;;;5031174;28;20557;-52
2021/08/29 05:06:18;;;;;;;5.45;3.30;;;;;;;;;;5032392;28;19905;-52
2021/08/29 05:08:44;;;;;;;7.75;3.83;;;;;;;;;;5032000;28;20026;-52
2021/08/29 05:11:10;;;;;;;5.35;3.67;;;;;;;;;;5032082;28;20112;-52
2021/08/29 05:13:36;;;;;;;6.45;4.28;;;;;;;;;;5031680;28;20259;-52
2021/08/29 05:16:02;;;;;;;5.65;3.78;;;;;;;;;;5032339;28;20022;-51
2021/08/29 05:18:28;;;;;;;5.63;3.50;;;;;;;;;;5031707;28;20363;-52
2021/08/29 05:20:54;;;;;;;4.88;3.75;;;;;;;;;;5031527;28;20037;-51
2021/08/29 05:23:20;;;;;;;6.68;3.55;;;;;;;;;;5031631;28;20439;-52
2021/08/29 05:25:46;;;;;;;8.85;3.05;;;;;;;;;;5031578;28;20036;-52
2021/08/29 05:28:12;;;;;;;4.93;3.63;;;;;;;;;;5035625;28;20360;-51
2021/08/29 05:30:38;;;;;;;7.82;3.50;;;;;;;;;;5035512;28;20025;-51
2021/08/29 05:33:04;;;;;;;8.65;4.32;;;;;;;;;;5035194;28;20024;-52
2021/08/29 05:35:30;;;;;;;9.55;4.72;;;;;;;;;;5033678;28;20462;-52
2021/08/29 05:37:56;;;;;;;8.00;3.40;;;;;;;;;;5035170;28;20049;-51
2021/08/29 05:40:22;;;;;;;11.20;4.20;;;;;;;;;;5034880;28;20052;-52
2021/08/29 05:42:48;;;;;;;7.57;4.00;;;;;;;;;;5035287;28;20071;-52
2021/08/29 05:45:14;;;;;;;7.40;3.85;;;;;;;;;;5033246;28;20030;-52
2021/08/29 05:47:40;;;;;;;6.75;4.20;;;;;;;;;;5035095;28;20431;-52
2021/08/29 05:50:06;;;;;;;5.45;3.60;;;;;;;;;;5034065;28;20052;-52
2021/08/29 05:52:32;;;;;;;6.88;3.83;;;;;;;;;;5035032;28;20028;-52
2021/08/29 05:54:58;;;;;;;5.78;4.05;;;;;;;;;;5033582;28;20033;-52
2021/08/29 05:57:24;;;;;;;7.47;3.83;;;;;;;;;;5034796;28;20037;-52
2021/08/29 05:59:50;;;;;;;12.85;4.13;;;;;;;;;;5034724;28;20026;-52
2021/08/29 06:02:16;;;;;;;7.53;4.10;;;;;;;;;;5035202;28;20033;-52
2021/08/29 06:04:43;;;;;;;6.30;4.03;;;;;;;;;;5033530;28;20067;-52
2021/08/29 06:07:09;;;;;;;5.80;4.00;;;;;;;;;;5032071;28;20033;-52
2021/08/29 06:09:35;;;;;;;5.43;3.45;;;;;;;;;;5034341;28;20447;-51
2021/08/29 06:12:02;;;;;;;13.73;3.88;;;;;;;;;;5034117;28;20070;-52
2021/08/29 06:14:28;;;;;;;8.88;4.07;;;;;;;;;;5033885;28;20032;-52
2021/08/29 06:16:54;;;;;;;10.85;4.47;;;;;;;;;;5034372;28;20036;-52
2021/08/29 06:19:20;;;;;;;4.30;3.08;;;;;;;;;;5033258;28;20021;-52
2021/08/29 06:21:46;;;;;;;5.82;3.60;;;;;;;;;;5034231;28;20509;-52
2021/08/29 06:24:12;;;;;;;5.65;3.20;;;;;;;;;;5033788;28;20055;-52
2021/08/29 06:26:38;;;;;;;8.27;3.78;;;;;;;;;;5034589;28;20388;-52
2021/08/29 06:29:04;;;;;;;6.00;3.25;;;;;;;;;;5034611;28;20026;-52
2021/08/29 06:31:30;;;;;;;3.53;2.65;;;;;;;;;;5034858;28;20021;-52
2021/08/29 06:33:56;;;;;;;8.52;2.85;;;;;;;;;;5033808;28;20024;-52
2021/08/29 06:36:22;;;;;;;6.15;3.30;;;;;;;;;;5033830;28;20116;-51
2021/08/29 06:38:48;;;;;;;6.85;3.42;;;;;;;;;;5034301;28;20026;-51
2021/08/29 06:41:14;;;;;;;5.88;3.70;;;;;;;;;;5034216;28;20107;-52
2021/08/29 06:43:39;;;;;;;5.30;2.88;;;;;;;;;;5020875;28;20018;-51
2021/08/29 06:46:05;;;;;;;7.43;2.92;;;;;;;;;;5033040;28;20040;-52
2021/08/29 06:48:31;;;;;;;5.38;3.17;;;;;;;;;;5034605;28;20021;-52
2021/08/29 06:50:57;;;;;;;6.50;2.90;;;;;;;;;;5033586;28;20029;-52
2021/08/29 06:53:23;;;;;;;7.68;3.28;;;;;;;;;;5033549;28;20040;-52
2021/08/29 06:55:49;;;;;;;5.68;3.17;;;;;;;;;;5033961;28;20026;-52
2021/08/29 06:58:15;;;;;;;7.43;3.67;;;;;;;;;;5032997;28;20383;-52
2021/08/29 07:00:41;;;;;;;5.88;3.85;;;;;;;;;;5033422;28;20122;-52
2021/08/29 07:03:07;;;;;;;7.90;4.10;;;;;;;;;;5034223;28;20025;-52
2021/08/29 07:05:33;;;;;;;11.35;3.95;;;;;;;;;;5032787;28;20179;-51
2021/08/29 07:07:59;;;;;;;12.13;3.97;;;;;;;;;;5034315;28;20021;-52
2021/08/29 07:10:25;;;;;;;6.03;3.78;;;;;;;;;;5033193;28;20410;-52
2021/08/29 07:12:51;;;;;;;8.82;4.43;;;;;;;;;;5033816;28;20034;-51
2021/08/29 07:15:17;;;;;;;7.60;3.70;;;;;;;;;;5032891;28;20444;-52
2021/08/29 07:17:43;;;;;;;8.18;3.38;;;;;;;;;;5033902;28;20025;-52
2021/08/29 07:20:10;;;;;;;6.75;3.33;;;;;;;;;;5032682;28;20263;-52
2021/08/29 07:22:36;;;;;;;6.95;3.38;;;;;;;;;;5034150;28;20121;-52
2021/08/29 07:25:02;;;;;;;6.70;3.88;;;;;;;;;;5032464;28;20108;-52
2021/08/29 07:27:28;;;;;;;6.45;4.35;;;;;;;;;;5033183;28;20084;-51
2021/08/29 07:29:54;;;;;;;5.50;3.33;;;;;;;;;;5032888;28;20466;-52
2021/08/29 07:32:20;;;;;;;6.70;3.22;;;;;;;;;;5033712;28;20029;-52
2021/08/29 07:34:46;;;;;;;5.65;2.78;;;;;;;;;;5033260;28;20034;-52
2021/08/29 07:37:12;;;;;;;5.85;3.45;;;;;;;;;;5032473;28;20350;-52
2021/08/29 07:39:38;;;;;;;4.85;3.13;;;;;;;;;;5033317;28;20021;-52
2021/08/29 07:42:04;;;;;;;4.97;3.20;;;;;;;;;;5033348;28;20103;-52
2021/08/29 07:44:30;;;;;;;7.43;3.03;;;;;;;;;;5032528;28;20506;-52
2021/08/29 07:46:56;;;;;;;5.95;2.78;;;;;;;;;;5033375;28;20040;-52
2021/08/29 07:49:22;;;;;;;5.22;3.30;;;;;;;;;;5032904;28;20085;-52
2021/08/29 07:51:48;;;;;;;5.18;3.00;;;;;;;;;;5032610;28;20021;-52
2021/08/29 07:54:14;;;;;;;5.32;3.30;;;;;;;;;;5032673;28;20104;-52
2021/08/29 07:56:40;;;;;;;4.22;2.60;;;;;;;;;;5032806;28;20041;-52
2021/08/29 07:59:06;;;;;;;5.03;2.58;;;;;;;;;;5032912;28;20455;-52
2021/08/29 08:01:32;;;;;;;4.78;2.67;;;;;;;;;;5032953;28;20304;-53
2021/08/29 08:03:58;;;;;;;7.50;2.67;;;;;;;;;;5032542;28;20025;-52
2021/08/29 08:06:24;;;;;;;4.13;2.78;;;;;;;;;;5032393;28;20397;-52
2021/08/29 08:08:50;;;;;;;5.50;2.20;;;;;;;;;;5033143;28;20100;-52
2021/08/29 08:11:16;;;;;;;3.42;2.20;;;;;;;;;;5032243;28;20120;-52
2021/08/29 08:13:42;;;;;;;4.32;2.70;;;;;;;;;;5031884;28;20025;-52
2021/08/29 08:16:08;;;;;;;6.32;2.70;;;;;;;;;;5032978;28;20088;-52
2021/08/29 08:18:34;;;;;;;2.60;1.92;;;;;;;;;;5033122;28;20024;-52
2021/08/29 08:21:00;;;;;;;4.32;2.60;;;;;;;;;;5032231;28;20448;-52
2021/08/29 08:23:26;;;;;;;3.63;2.45;;;;;;;;;;5031853;28;20068;-52
2021/08/29 08:25:52;;;;;;;6.82;3.20;;;;;;;;;;5032163;28;20033;-52
2021/08/29 08:28:18;;;;;;;3.50;2.63;;;;;;;;;;5032332;28;20040;-52
2021/08/29 08:30:44;;;;;;;7.00;3.05;;;;;;;;;;5032692;28;20022;-52
2021/08/29 08:33:10;;;;;;;4.72;2.97;;;;;;;;;;5032835;28;20501;-51
2021/08/29 08:35:36;;;;;;;5.30;3.20;;;;;;;;;;5030993;28;20029;-53
2021/08/29 08:38:02;;;;;;;5.80;3.17;;;;;;;;;;5032374;28;20080;-52
2021/08/29 08:40:32;;;;;;;3.88;2.60;;;;;;;;;;5032458;28;20075;-51
2021/08/29 08:42:58;;;;;;;3.80;2.50;;;;;;;;;;5032022;28;20034;-51
2021/08/29 08:45:24;;;;;;;3.95;2.83;;;;;;;;;;5032343;28;20029;-52
2021/08/29 08:47:50;;;;;;;4.07;2.58;;;;;;;;;;5032501;28;20032;-52
2021/08/29 08:50:16;;;;;;;4.00;2.60;;;;;;;;;;5032660;28;20499;-52
2021/08/29 08:52:42;;;;;;;4.93;2.20;;;;;;;;;;5031381;28;20033;-51
2021/08/29 08:55:09;;;;;;;3.53;2.80;;;;;;;;;;5031384;28;20034;-52
2021/08/29 08:57:38;;;;;;;6.97;2.70;;;;;;;;;;5032138;28;20061;-52
2021/08/29 09:00:05;;;;;;;3.63;2.55;;;;;;;;;;5032592;28;20032;-52
2021/08/29 09:02:30;;;;;;;4.18;2.83;;;;;;;;;;5034802;28;20025;-52
2021/08/29 09:04:56;;;;;;;2.90;2.28;;;;;;;;;;5035176;28;20025;-51
2021/08/29 09:07:22;;;;;;;6.93;2.92;;;;;;;;;;5034755;28;20026;-51
2021/08/29 09:09:48;;;;;;;4.32;2.95;;;;;;;;;;5035170;28;20033;-51
2021/08/29 09:12:15;;;;;;;4.90;2.75;;;;;;;;;;5034387;28;20033;-52
2021/08/29 09:14:41;;;;;;;8.50;2.97;;;;;;;;;;5035023;28;20037;-51
2021/08/29 09:17:26;;;;;;;3.95;2.47;;;;;;;;;;5035953;28;20022;-51
2021/08/29 09:19:52;;;;;;;5.15;2.85;;;;;;;;;;5034734;28;20022;-51
2021/08/29 09:22:25;;;;;;;7.38;3.00;;;;;;;;;;5034455;28;20423;-51
2021/08/29 09:24:51;;;;;;;4.78;3.08;;;;;;;;;;5033492;28;20083;-51
2021/08/29 09:27:21;;;;;;;4.13;2.80;;;;;;;;;;5034526;28;20041;-51
2021/08/29 09:29:47;;;;;;;3.97;2.57;;;;;;;;;;5034279;28;20025;-52
2021/08/29 09:32:13;;;;;;;3.90;2.33;;;;;;;;;;5032151;28;20280;-51
2021/08/29 09:34:39;;;;;;;4.10;2.35;;;;;;;;;;5034084;28;20053;-52
2021/08/29 09:37:05;;;;;;;3.40;2.30;;;;;;;;;;5033535;28;20132;-52
2021/08/29 09:39:31;;;;;;;2.90;1.92;;;;;;;;;;5031573;28;20017;-51
2021/08/29 09:42:04;;;;;;;2.85;2.13;;;;;;;;;;5032521;28;20359;-52
2021/08/29 09:44:34;;;;;;;2.95;1.98;;;;;;;;;;5033667;28;20104;-51
2021/08/29 09:47:04;;;;;;;2.25;1.83;;;;;;;;;;5034671;28;20024;-52
2021/08/29 09:49:34;;;;;;;3.45;2.08;;;;;;;;;;5033737;28;20463;-51
2021/08/29 09:52:01;;;;;;;2.95;2.33;;;;;;;;;;5033532;28;20059;-52
2021/08/29 09:54:27;;;;;;;1.85;1.50;;;;;;;;;;5033645;28;20068;-52
2021/08/29 09:56:53;;;;;;;3.45;1.90;;;;;;;;;;5033503;28;20071;-51
2021/08/29 09:59:37;;;;;;;3.38;2.30;;;;;;;;;;5034186;28;20029;-52
2021/08/29 10:02:03;;;;;;;3.03;1.98;;;;;;;;;;5032425;28;20088;-51
2021/08/29 10:04:29;;;;;;;2.20;1.80;;;;;;;;;;5033588;28;20021;-52
2021/08/29 10:06:55;;;;;;;2.83;1.33;;;;;;;;;;5033051;28;20033;-51
2021/08/29 10:09:25;;;;;;;3.60;1.75;;;;;;;;;;5033977;28;20063;-52
2021/08/29 10:11:51;;;;;;;1.88;1.45;;;;;;;;;;5033208;28;20095;-52
2021/08/29 10:14:18;;;;;;;3.20;1.65;;;;;;;;;;5034599;28;20033;-51
2021/08/29 10:16:44;;;;;;;1.88;1.65;;;;;;;;;;5034520;28;20022;-51
2021/08/29 10:19:14;;;;;;;3.70;1.50;;;;;;;;;;5035172;28;20072;-52
2021/08/29 10:21:40;;;;;;;1.52;1.30;;;;;;;;;;5033160;28;20514;-52
2021/08/29 10:24:07;;;;;;;2.33;1.27;;;;;;;;;;5034164;28;20036;-51
2021/08/29 10:26:34;;;;;;;3.15;1.65;;;;;;;;;;5033877;28;20367;-52
2021/08/29 10:29:28;;;;;;;1.65;1.45;;;;;;;;;;5034598;28;20029;-52
2021/08/29 10:32:00;;;;;;;1.50;1.30;;;;;;;;;;5034316;28;20037;-52
2021/08/29 10:34:27;;;;;;;1.27;1.10;;;;;;;;;;5034304;28;20022;-52
2021/08/29 10:36:55;;;;;;;1.30;1.20;;;;;;;;;;5033849;28;20029;-52
2021/08/29 10:39:21;;;;;;;1.50;1.40;;;;;;;;;;5034589;28;20029;-51
2021/08/29 10:41:47;;;;;;;1.30;1.20;;;;;;;;;;5033279;28;20045;-50
2021/08/29 10:44:14;;;;;;;1.42;1.13;;;;;;;;;;5033688;28;20347;-51
2021/08/29 10:46:44;;;;;;;1.50;1.25;;;;;;;;;;5034778;28;20032;-52
2021/08/29 10:49:10;;;;;;;2.22;1.20;;;;;;;;;;5034714;28;20021;-52
2021/08/29 10:51:36;;;;;;;1.65;1.27;;;;;;;;;;5033597;28;20034;-51
2021/08/29 10:54:10;;;;;;;1.00;0.90;;;;;;;;;;5033671;28;20026;-51
2021/08/29 10:56:36;;;;;;;2.15;1.27;;;;;;;;;;5034043;28;20036;-51
2021/08/29 10:59:09;;;;;;;1.00;0.90;;;;;;;;;;5034311;28;20024;-52
2021/08/29 11:01:35;;;;;;;1.00;0.90;;;;;;;;;;5033971;28;20030;-51
2021/08/29 11:04:20;;;;;;;0.88;0.88;;;;;;;;;;5033547;28;20033;-52
2021/08/29 11:06:47;;;;;;;0.80;0.80;;;;;;;;;;5033225;28;20064;-52
2021/08/29 11:09:32;;;;;;;0.73;0.70;;;;;;;;;;5034230;28;20068;-51
2021/08/29 11:11:58;;;;;;;1.98;0.90;;;;;;;;;;5033257;28;20081;-52
2021/08/29 11:14:37;;;;;;;3.42;1.02;;;;;;;;;;5032953;28;20025;-52
2021/08/29 11:17:09;;;;;;;0.80;0.80;;;;;;;;;;5033787;28;20390;-51
2021/08/29 11:19:42;;;;;;;1.65;1.10;;;;;;;;;;5034130;28;20029;-51
2021/08/29 11:22:08;;;;;;;1.10;1.00;;;;;;;;;;5033076;28;20118;-52
2021/08/29 11:24:49;;;;;;;0.70;0.70;;;;;;;;;;5031990;28;20439;-51
2021/08/29 11:27:34;;;;;;;1.13;0.90;;;;;;;;;;5033283;28;20037;-51
2021/08/29 11:30:08;;;;;;;0.75;0.60;;;;;;;;;;5033878;28;20018;-52
2021/08/29 11:32:40;;;;;;;2.75;0.70;;;;;;;;;;5033558;28;20029;-51
2021/08/29 11:35:08;;;;;;;0.82;0.82;;;;;;;;;;5032986;28;20101;-52
2021/08/29 11:37:35;;;;;;;0.80;0.80;;;;;;;;;;5032878;28;20025;-51
2021/08/29 11:40:06;;;;;;;2.03;0.85;;;;;;;;;;5032972;28;20410;-51
2021/08/29 11:42:33;;;;;;;1.35;1.15;;;;;;;;;;5025457;28;20331;-51
2021/08/29 11:44:59;;;;;;;0.70;0.70;;;;;;;;;;5032752;28;20105;-51
2021/08/29 11:47:26;;;;;;;0.93;0.90;;;;;;;;;;5033506;28;20443;-51
2021/08/29 11:49:53;;;;;;;0.90;0.80;;;;;;;;;;5033238;28;20120;-51
2021/08/29 11:52:29;;;;;;;1.92;0.88;;;;;;;;;;5032651;28;20029;-52
2021/08/29 11:55:14;;;;;;;1.65;0.95;;;;;;;;;;5032349;28;20447;-52
2021/08/29 11:57:46;;;;;;;1.10;1.00;;;;;;;;;;5024963;28;20100;-52
2021/08/29 12:00:13;;;;;;;1.23;1.10;;;;;;;;;;5033325;28;20026;-52
2021/08/29 12:02:41;;;;;;;0.90;0.90;;;;;;;;;;5032988;28;20057;-52
2021/08/29 12:05:10;;;;;;;2.47;0.93;;;;;;;;;;5031878;28;20120;-51
2021/08/29 12:07:37;;;;;;;1.30;1.20;;;;;;;;;;5032170;28;20129;-51
2021/08/29 12:10:05;;;;;;;1.20;1.10;;;;;;;;;;5033233;28;20025;-51
2021/08/29 12:12:31;;;;;;;1.52;1.30;;;;;;;;;;5032516;28;20064;-52
2021/08/29 12:14:57;;;;;;;2.17;1.05;;;;;;;;;;5032118;28;20061;-52
2021/08/29 12:17:24;;;;;;;1.95;1.08;;;;;;;;;;5032928;28;20014;-52
2021/08/29 12:19:51;;;;;;;2.45;0.90;;;;;;;;;;5032693;28;20468;-52
2021/08/29 12:22:17;;;;;;;0.95;0.90;;;;;;;;;;5033015;28;20048;-51
2021/08/29 12:24:44;;;;;;;1.58;1.38;;;;;;;;;;5031385;28;20025;-52
2021/08/29 12:27:11;;;;;;;0.98;0.90;;;;;;;;;;5031783;28;20084;-52
2021/08/29 12:29:57;;;;;;;1.13;0.88;;;;;;;;;;5032633;28;20493;-52
2021/08/29 12:32:27;;;;;;;0.80;0.80;;;;;;;;;;5032939;28;20040;-52
2021/08/29 12:35:04;;;;;;;1.25;1.15;;;;;;;;;;5032254;28;20038;-52
2021/08/29 12:37:32;;;;;;;1.10;1.00;;;;;;;;;;5037233;28;20044;-51
2021/08/29 12:40:00;;;;;;;1.73;1.25;;;;;;;;;;5036406;28;20041;-52
2021/08/29 12:42:27;;;;;;;3.45;1.30;;;;;;;;;;5036160;28;20037;-52
2021/08/29 12:44:56;;;;;;;1.20;1.10;;;;;;;;;;5016421;28;20117;-52
2021/08/29 12:47:22;;;;;;;1.30;1.20;;;;;;;;;;5031395;28;20367;-51
2021/08/29 12:49:52;;;;;;;2.85;1.80;;;;;;;;;;5036753;28;20025;-51
2021/08/29 12:52:24;;;;;;;2.30;1.77;;;;;;;;;;5026729;28;20053;-51
2021/08/29 12:54:50;;;;;;;6.93;1.52;;;;;;;;;;5032977;28;20355;-51
2021/08/29 12:57:20;;;;;;;1.65;1.55;;;;;;;;;;5035991;28;20033;-52
2021/08/29 12:59:50;;;;;;;4.95;1.10;;;;;;;;;;5036723;28;20032;-51
2021/08/29 13:02:17;;;;;;;1.27;1.05;;;;;;;;;;5036364;28;20043;-52
2021/08/29 13:04:46;;;;;;;1.20;1.10;;;;;;;;;;5035830;28;20076;-52
2021/08/29 13:07:12;;;;;;;1.23;1.13;;;;;;;;;;5036768;28;20029;-51
2021/08/29 13:09:38;;;;;;;3.13;1.30;;;;;;;;;;5034979;28;20068;-52
2021/08/29 13:12:08;;;;;;;1.42;1.15;;;;;;;;;;5035656;28;20347;-51
2021/08/29 13:14:35;;;;;;;1.10;1.00;;;;;;;;;;5035526;28;20025;-51
2021/08/29 13:17:12;;;;;;;1.52;1.35;;;;;;;;;;5036109;28;20036;-53
2021/08/29 13:19:39;;;;;;;1.35;1.00;;;;;;;;;;5036282;28;20425;-52
2021/08/29 13:22:05;;;;;;;3.53;1.35;;;;;;;;;;5036001;28;20056;-52
2021/08/29 13:24:32;;;;;;;1.88;1.25;;;;;;;;;;5033921;28;20483;-52
2021/08/29 13:26:59;;;;;;;2.67;1.38;;;;;;;;;;5032896;28;20034;-53
2021/08/29 13:29:35;;;;;;;2.42;1.20;;;;;;;;;;5030485;28;20490;-52
2021/08/29 13:32:01;;;;;;;1.27;1.13;;;;;;;;;;5035879;28;20479;-52
2021/08/29 13:34:29;;;;;;;2.03;1.45;;;;;;;;;;5035011;28;20517;-53
2021/08/29 13:36:55;;;;;;;4.28;1.30;;;;;;;;;;5035801;28;20112;-53
2021/08/29 13:39:24;;;;;;;1.67;1.05;;;;;;;;;;5035018;28;20048;-53
2021/08/29 13:42:06;;;;;;;1.35;0.98;;;;;;;;;;5035229;28;20029;-52
2021/08/29 13:44:32;;;;;;;1.55;0.75;;;;;;;;;;5034847;28;20025;-52
2021/08/29 13:47:04;;;;;;;3.45;1.27;;;;;;;;;;5034740;28;20029;-53
2021/08/29 13:49:30;;;;;;;0.70;0.70;;;;;;;;;;5035593;28;20018;-52
2021/08/29 13:51:56;;;;;;;1.58;0.70;;;;;;;;;;5035486;28;20406;-53
2021/08/29 13:54:23;;;;;;;1.38;0.70;;;;;;;;;;5034273;28;20072;-52
2021/08/29 13:56:49;;;;;;;5.40;0.85;;;;;;;;;;5035425;28;20037;-52
2021/08/29 13:59:15;;;;;;;4.30;0.80;;;;;;;;;;5034946;28;20026;-52
2021/08/29 14:01:40;;;;;;;0.95;0.88;;;;;;;;;;5034764;28;20041;-53
2021/08/29 14:04:06;;;;;;;0.73;0.73;;;;;;;;;;5034710;28;20109;-52
2021/08/29 14:06:32;;;;;;;0.90;0.77;;;;;;;;;;5035249;28;20021;-52
2021/08/29 14:08:58;;;;;;;1.13;0.75;;;;;;;;;;5034523;28;20515;-53
2021/08/29 14:11:24;;;;;;;2.75;0.80;;;;;;;;;;5034640;28;20037;-53
2021/08/29 14:13:50;;;;;;;0.95;0.82;;;;;;;;;;5034156;28;20057;-52
2021/08/29 14:16:16;;;;;;;1.65;0.68;;;;;;;;;;5034531;28;20095;-53
2021/08/29 14:18:42;;;;;;;2.78;0.55;;;;;;;;;;5035235;28;20046;-53
2021/08/29 14:21:08;;;;;;;1.05;0.60;;;;;;;;;;5034855;28;20414;-52
2021/08/29 14:23:34;;;;;;;2.83;0.77;;;;;;;;;;5034114;28;20053;-52
2021/08/29 14:26:00;;;;;;;0.65;0.65;;;;;;;;;;5034068;28;20030;-52
2021/08/29 14:28:27;;;;;;;0.82;0.50;;;;;;;;;;5034512;28;20030;-51
2021/08/29 14:30:53;;;;;;;2.75;0.70;;;;;;;;;;5034252;28;20510;-52
2021/08/29 14:33:18;;;;;;;4.70;0.80;;;;;;;;;;5034356;28;20105;-52
2021/08/29 14:35:44;;;;;;;0.60;0.60;;;;;;;;;;5034789;28;20351;-52
2021/08/29 14:38:10;;;;;;;0.70;0.60;;;;;;;;;;5034904;28;20028;-52
2021/08/29 14:40:36;;;;;;;0.95;0.70;;;;;;;;;;5033192;28;20033;-52
2021/08/29 14:43:02;;;;;;;1.27;0.50;;;;;;;;;;5034496;28;20029;-52
2021/08/29 14:45:29;;;;;;;3.53;0.80;;;;;;;;;;5033342;28;20022;-52